createdAt,value
2022-11-28T00:02:13.070Z,6.32
2022-11-28T00:04:40.654Z,6.32
2022-11-28T00:07:08.012Z,6.33
2022-11-28T00:09:35.182Z,6.33
2022-11-28T00:12:02.319Z,6.32
2022-11-28T00:14:29.284Z,6.33
2022-11-28T00:16:56.052Z,6.32
2022-11-28T00:19:22.953Z,6.30
2022-11-28T00:21:49.880Z,6.32
2022-11-28T00:24:16.777Z,6.33
2022-11-28T00:26:43.689Z,6.32
2022-11-28T00:29:11.399Z,6.33
2022-11-28T00:31:43.209Z,6.32
2022-11-28T00:34:12.493Z,6.32
2022-11-28T00:36:39.793Z,6.30
2022-11-28T00:39:08.138Z,6.31
2022-11-28T00:41:35.651Z,6.31
2022-11-28T00:44:02.774Z,6.31
2022-11-28T00:46:29.845Z,6.31
2022-11-28T00:48:58.358Z,6.29
2022-11-28T00:51:28.907Z,6.28
2022-11-28T00:53:57.817Z,6.26
2022-11-28T00:56:28.198Z,6.26
2022-11-28T00:58:56.121Z,6.28
2022-11-28T01:01:35.653Z,6.23
2022-11-28T01:04:06.433Z,6.28
2022-11-28T01:06:39.142Z,6.28
2022-11-28T01:09:10.779Z,6.27
2022-11-28T01:11:39.819Z,6.27
2022-11-28T01:14:07.770Z,6.22
2022-11-28T01:16:34.694Z,6.20
2022-11-28T01:19:01.638Z,6.21
2022-11-28T01:21:28.934Z,6.20
2022-11-28T01:23:55.719Z,6.22
2022-11-28T01:26:25.636Z,6.20
2022-11-28T01:28:52.994Z,6.17
2022-11-28T01:31:22.801Z,6.21
2022-11-28T01:33:50.122Z,6.17
2022-11-28T01:36:18.350Z,6.14
2022-11-28T01:38:45.466Z,6.14
2022-11-28T01:41:13.820Z,6.15
2022-11-28T01:43:59.444Z,6.16
2022-11-28T01:46:26.645Z,6.15
2022-11-28T01:48:56.506Z,6.15
2022-11-28T01:51:23.439Z,6.16
2022-11-28T01:53:50.277Z,6.17
2022-11-28T01:56:28.900Z,6.19
2022-11-28T01:59:01.963Z,6.20
2022-11-28T02:01:29.277Z,6.18
2022-11-28T02:03:58.679Z,6.17
2022-11-28T02:06:27.493Z,6.18
2022-11-28T02:08:55.617Z,6.26
2022-11-28T02:11:43.710Z,6.27
2022-11-28T02:14:38.159Z,6.24
2022-11-28T02:17:43.261Z,6.23
2022-11-28T02:20:18.728Z,6.24
2022-11-28T02:23:04.278Z,6.25
2022-11-28T02:25:49.322Z,6.25
2022-11-28T02:28:40.724Z,6.29
2022-11-28T02:31:41.559Z,6.29
2022-11-28T02:34:24.685Z,6.30
2022-11-28T02:37:00.252Z,6.30
2022-11-28T02:39:51.575Z,6.31
2022-11-28T02:42:25.545Z,6.33
2022-11-28T02:45:18.459Z,6.35
2022-11-28T02:48:03.181Z,6.35
2022-11-28T02:50:42.059Z,6.37
2022-11-28T02:53:14.222Z,6.36
2022-11-28T02:55:43.825Z,6.35
2022-11-28T02:58:12.768Z,6.38
2022-11-28T03:00:44.988Z,6.39
2022-11-28T03:03:38.497Z,6.42
2022-11-28T03:06:20.852Z,6.42
2022-11-28T03:09:13.752Z,6.43
2022-11-28T03:12:04.049Z,6.43
2022-11-28T03:14:54.847Z,6.42
2022-11-28T03:17:27.881Z,6.45
2022-11-28T03:20:10.222Z,6.45
2022-11-28T03:22:37.115Z,6.47
2022-11-28T03:25:25.774Z,6.47
2022-11-28T03:28:03.553Z,6.46
2022-11-28T03:30:37.965Z,6.48
2022-11-28T03:33:06.892Z,6.49
2022-11-28T03:35:39.843Z,6.49
2022-11-28T03:38:15.371Z,6.49
2022-11-28T03:40:49.263Z,6.49
2022-11-28T03:43:21.951Z,6.52
2022-11-28T03:45:55.061Z,6.53
2022-11-28T03:48:30.785Z,6.56
2022-11-28T03:51:07.559Z,6.58
2022-11-28T03:53:55.793Z,6.59
2022-11-28T03:56:30.701Z,6.60
2022-11-28T03:59:08.351Z,6.61
2022-11-28T04:02:01.546Z,6.63
2022-11-28T04:04:37.211Z,6.63
2022-11-28T04:07:19.005Z,6.64
2022-11-28T04:09:50.595Z,6.66
2022-11-28T04:12:32.437Z,6.68
2022-11-28T04:15:30.101Z,6.69
2022-11-28T04:18:04.954Z,6.71
2022-11-28T04:20:53.255Z,6.71
2022-11-28T04:23:22.425Z,6.71
2022-11-28T04:25:58.532Z,6.72
2022-11-28T04:28:29.913Z,6.74
2022-11-28T04:31:01.386Z,6.77
2022-11-28T04:33:32.372Z,6.77
2022-11-28T04:36:00.813Z,6.79
2022-11-28T04:38:29.739Z,6.80
2022-11-28T04:41:20.509Z,6.83
2022-11-28T04:43:58.864Z,6.84
2022-11-28T04:46:32.870Z,6.86
2022-11-28T04:49:01.093Z,6.87
2022-11-28T04:51:39.723Z,6.89
2022-11-28T04:54:31.927Z,6.90
2022-11-28T04:57:12.279Z,6.92
2022-11-28T04:59:41.485Z,6.94
2022-11-28T05:02:09.462Z,6.97
2022-11-28T05:04:37.440Z,6.97
2022-11-28T05:07:07.038Z,6.99
2022-11-28T05:09:34.492Z,7.00
2022-11-28T05:12:01.577Z,7.01
2022-11-28T05:14:28.485Z,7.02
2022-11-28T05:16:55.539Z,7.02
2022-11-28T05:19:22.456Z,7.04
2022-11-28T05:21:49.348Z,7.05
2022-11-28T05:24:16.249Z,7.06
2022-11-28T05:26:43.394Z,7.07
2022-11-28T05:29:10.576Z,7.09
2022-11-28T05:31:37.967Z,7.10
2022-11-28T05:34:05.623Z,7.09
2022-11-28T05:36:32.641Z,7.11
2022-11-28T05:38:59.563Z,7.13
2022-11-28T05:41:29.070Z,7.14
2022-11-28T05:43:57.352Z,7.15
2022-11-28T05:46:25.143Z,7.16
2022-11-28T05:48:52.107Z,7.18
2022-11-28T05:51:19.084Z,7.18
2022-11-28T05:53:45.983Z,7.18
2022-11-28T05:56:16.022Z,7.22
2022-11-28T05:58:43.416Z,7.22
2022-11-28T06:01:19.932Z,7.24
2022-11-28T06:03:47.406Z,7.25
2022-11-28T06:06:21.821Z,7.27
2022-11-28T06:08:49.997Z,7.26
2022-11-28T06:11:16.984Z,7.28
2022-11-28T06:13:45.050Z,7.28
2022-11-28T06:16:15.731Z,7.31
2022-11-28T06:18:42.651Z,7.31
2022-11-28T06:21:11.893Z,7.31
2022-11-28T06:23:39.515Z,7.30
2022-11-28T06:26:15.901Z,7.34
2022-11-28T06:28:42.892Z,7.33
2022-11-28T06:31:12.216Z,7.35
2022-11-28T06:33:39.376Z,7.34
2022-11-28T06:36:07.473Z,7.35
2022-11-28T06:38:35.043Z,7.36
2022-11-28T06:41:06.830Z,7.37
2022-11-28T06:43:33.973Z,7.39
2022-11-28T06:46:01.399Z,7.41
2022-11-28T06:48:28.725Z,7.41
2022-11-28T06:51:03.108Z,7.40
2022-11-28T06:53:31.618Z,7.43
2022-11-28T06:55:59.002Z,7.43
2022-11-28T06:58:26.183Z,7.44
2022-11-28T07:00:53.128Z,7.46
2022-11-28T07:03:19.987Z,7.46
2022-11-28T07:05:46.916Z,7.47
2022-11-28T07:08:13.827Z,7.47
2022-11-28T07:10:40.649Z,7.48
2022-11-28T07:13:07.810Z,7.48
2022-11-28T07:15:34.686Z,7.51
2022-11-28T07:18:01.525Z,7.51
2022-11-28T07:20:28.481Z,7.50
2022-11-28T07:22:55.429Z,7.51
2022-11-28T07:25:22.233Z,7.52
2022-11-28T07:27:49.128Z,7.53
2022-11-28T07:30:15.995Z,7.54
2022-11-28T07:32:42.903Z,7.55
2022-11-28T07:35:09.896Z,7.57
2022-11-28T07:37:36.867Z,7.55
2022-11-28T07:40:04.380Z,7.55
2022-11-28T07:42:31.237Z,7.58
2022-11-28T07:45:04.536Z,7.57
2022-11-28T07:47:31.635Z,7.60
2022-11-28T07:49:58.460Z,7.60
2022-11-28T07:52:25.385Z,7.62
2022-11-28T07:54:52.332Z,7.63
2022-11-28T07:57:19.287Z,7.63
2022-11-28T07:59:46.201Z,7.64
2022-11-28T08:02:13.371Z,7.65
2022-11-28T08:04:47.651Z,7.66
2022-11-28T08:07:16.531Z,7.67
2022-11-28T08:09:43.654Z,7.69
2022-11-28T08:12:10.740Z,7.69
2022-11-28T08:14:37.454Z,7.69
2022-11-28T08:17:04.381Z,7.69
2022-11-28T08:19:35.130Z,7.70
2022-11-28T08:22:02.793Z,7.69
2022-11-28T08:24:29.831Z,7.70
2022-11-28T08:26:57.098Z,7.70
2022-11-28T08:29:23.995Z,7.71
2022-11-28T08:31:50.901Z,7.71
2022-11-28T08:34:17.751Z,7.72
2022-11-28T08:36:44.716Z,7.73
2022-11-28T08:39:27.844Z,7.73
2022-11-28T08:41:57.658Z,7.74
2022-11-28T08:44:25.306Z,7.78
2022-11-28T08:46:53.894Z,7.78
2022-11-28T08:49:20.946Z,7.79
2022-11-28T08:51:47.854Z,7.82
2022-11-28T08:54:15.030Z,7.84
2022-11-28T08:56:42.031Z,7.85
2022-11-28T08:59:09.641Z,7.87
2022-11-28T09:01:36.877Z,7.90
2022-11-28T09:04:04.433Z,7.91
2022-11-28T09:06:33.077Z,7.93
2022-11-28T09:09:00.081Z,7.94
2022-11-28T09:11:26.870Z,7.96
2022-11-28T09:13:55.089Z,7.99
2022-11-28T09:16:22.413Z,8.00
2022-11-28T09:18:49.194Z,8.00
2022-11-28T09:21:16.376Z,8.04
2022-11-28T09:23:44.525Z,8.05
2022-11-28T09:26:11.243Z,8.08
2022-11-28T09:28:38.432Z,8.13
2022-11-28T09:31:07.025Z,8.20
2022-11-28T09:33:34.753Z,8.22
2022-11-28T09:36:11.028Z,8.23
2022-11-28T09:38:38.603Z,8.26
2022-11-28T09:41:30.052Z,8.28
2022-11-28T09:44:03.229Z,8.32
2022-11-28T09:46:34.458Z,8.35
2022-11-28T09:49:06.084Z,8.35
2022-11-28T09:51:52.458Z,8.36
2022-11-28T09:54:29.517Z,8.31
2022-11-28T09:56:57.292Z,8.29
2022-11-28T09:59:27.318Z,8.29
2022-11-28T10:02:15.353Z,8.30
2022-11-28T10:04:46.394Z,8.28
2022-11-28T10:07:23.277Z,8.32
2022-11-28T10:10:17.505Z,8.29
2022-11-28T10:12:59.692Z,8.35
2022-11-28T10:15:52.340Z,8.39
2022-11-28T10:18:44.290Z,8.41
2022-11-28T10:21:31.808Z,8.41
2022-11-28T10:24:04.712Z,8.40
2022-11-28T10:26:37.791Z,8.42
2022-11-28T10:29:18.799Z,8.44
2022-11-28T10:31:47.232Z,8.45
2022-11-28T10:34:29.440Z,8.49
2022-11-28T10:37:08.104Z,8.54
2022-11-28T10:39:37.613Z,8.59
2022-11-28T10:42:15.851Z,8.59
2022-11-28T10:45:23.515Z,8.65
2022-11-28T10:48:39.710Z,8.68
2022-11-28T10:51:19.648Z,8.72
2022-11-28T10:54:22.459Z,8.72
2022-11-28T10:57:15.736Z,8.75
2022-11-28T11:00:04.199Z,8.81
2022-11-28T11:02:43.681Z,8.74
2022-11-28T11:05:20.572Z,8.72
2022-11-28T11:08:10.369Z,8.68
2022-11-28T11:10:43.000Z,8.74
2022-11-28T11:13:26.678Z,8.73
2022-11-28T11:16:00.711Z,8.76
2022-11-28T11:18:32.891Z,8.76
2022-11-28T11:21:21.281Z,8.80
2022-11-28T11:23:49.859Z,8.81
2022-11-28T11:26:30.191Z,8.77
2022-11-28T11:28:57.657Z,8.80
2022-11-28T11:31:31.768Z,8.88
2022-11-28T11:34:04.030Z,8.91
2022-11-28T11:36:34.424Z,8.93
2022-11-28T11:39:19.923Z,8.94
2022-11-28T11:42:09.133Z,8.94
2022-11-28T11:44:36.919Z,8.91
2022-11-28T11:47:09.693Z,8.95
2022-11-28T11:49:44.973Z,9.01
2022-11-28T11:52:12.910Z,8.97
2022-11-28T11:55:04.277Z,8.97
2022-11-28T11:57:51.082Z,8.95
2022-11-28T12:00:19.810Z,8.98
2022-11-28T12:02:53.462Z,8.97
2022-11-28T12:05:25.136Z,9.00
2022-11-28T12:07:59.924Z,9.07
2022-11-28T12:10:31.026Z,9.06
2022-11-28T12:12:57.983Z,9.06
2022-11-28T12:15:40.478Z,9.02
2022-11-28T12:18:25.850Z,8.98
2022-11-28T12:21:20.327Z,9.00
2022-11-28T12:24:12.529Z,8.99
2022-11-28T12:26:53.717Z,8.98
2022-11-28T12:29:35.772Z,9.01
2022-11-28T12:32:29.875Z,8.99
2022-11-28T12:35:17.058Z,8.99
2022-11-28T12:41:30.721Z,9.02
2022-11-28T12:44:02.266Z,9.04
2022-11-28T12:46:39.228Z,9.05
2022-11-28T12:49:15.544Z,9.02
2022-11-28T12:52:04.205Z,9.03
2022-11-28T12:54:54.339Z,9.05
2022-11-28T12:57:39.266Z,8.99
2022-11-28T13:00:18.979Z,8.97
2022-11-28T13:03:10.210Z,9.00
2022-11-28T13:05:59.859Z,8.96
2022-11-28T13:08:49.351Z,8.91
2022-11-28T13:11:51.571Z,8.92
2022-11-28T13:14:25.495Z,8.94
2022-11-28T13:16:54.933Z,8.96
2022-11-28T13:19:50.635Z,8.95
2022-11-28T13:22:26.000Z,8.95
2022-11-28T13:25:03.271Z,8.94
2022-11-28T13:27:46.286Z,8.94
2022-11-28T13:30:26.363Z,8.91
2022-11-28T13:33:02.460Z,8.94
2022-11-28T13:35:29.930Z,8.93
2022-11-28T13:40:57.019Z,8.97
2022-11-28T13:43:46.413Z,8.95
2022-11-28T13:46:14.360Z,8.96
2022-11-28T13:51:32.724Z,8.97
2022-11-28T13:54:18.217Z,8.97
2022-11-28T13:57:08.310Z,9.00
2022-11-28T13:59:36.938Z,8.96
2022-11-28T14:02:17.451Z,8.94
2022-11-28T14:04:45.274Z,8.98
2022-11-28T14:07:26.956Z,9.05
2022-11-28T14:10:01.339Z,8.99
2022-11-28T14:12:42.835Z,8.99
2022-11-28T14:15:21.347Z,8.97
2022-11-28T14:17:51.031Z,8.97
2022-11-28T14:20:43.023Z,9.02
2022-11-28T14:23:27.863Z,9.01
2022-11-28T14:25:55.829Z,9.02
2022-11-28T14:28:32.753Z,9.03
2022-11-28T14:31:08.125Z,9.01
2022-11-28T14:33:42.694Z,9.02
2022-11-28T14:36:29.868Z,9.01
2022-11-28T14:39:04.297Z,9.01
2022-11-28T14:41:31.366Z,9.04
2022-11-28T14:44:36.298Z,9.04
2022-11-28T14:47:27.951Z,9.02
2022-11-28T14:50:07.224Z,8.98
2022-11-28T14:52:39.466Z,8.99
2022-11-28T14:55:08.519Z,8.98
2022-11-28T14:57:41.444Z,8.96
2022-11-28T15:00:24.732Z,8.95
2022-11-28T15:03:23.413Z,8.93
2022-11-28T15:06:02.522Z,8.94
2022-11-28T15:08:54.751Z,8.92
2022-11-28T15:11:56.495Z,8.88
2022-11-28T15:14:25.533Z,8.86
2022-11-28T15:16:58.297Z,8.85
2022-11-28T15:19:30.773Z,8.83
2022-11-28T15:21:57.873Z,8.82
2022-11-28T15:24:29.081Z,8.79
2022-11-28T15:27:21.596Z,8.77
2022-11-28T15:29:59.941Z,8.77
2022-11-28T15:32:30.302Z,8.76
2022-11-28T15:35:02.003Z,8.76
2022-11-28T15:37:34.658Z,8.73
2022-11-28T15:40:06.935Z,8.73
2022-11-28T15:42:36.785Z,8.72
2022-11-28T15:45:18.568Z,8.74
2022-11-28T15:47:46.744Z,8.71
2022-11-28T15:50:13.603Z,8.69
2022-11-28T15:52:40.805Z,8.67
2022-11-28T15:55:16.203Z,8.66
2022-11-28T15:57:43.205Z,8.63
2022-11-28T16:00:15.062Z,8.61
2022-11-28T16:02:44.389Z,8.59
2022-11-28T16:05:16.492Z,8.58
2022-11-28T16:07:44.419Z,8.58
2022-11-28T16:10:25.228Z,8.59
2022-11-28T16:12:59.569Z,8.60
2022-11-28T16:15:27.406Z,8.61
2022-11-28T16:17:55.756Z,8.61
2022-11-28T16:20:30.439Z,8.61
2022-11-28T16:23:09.450Z,8.62
2022-11-28T16:25:37.116Z,8.62
2022-11-28T16:28:04.565Z,8.53
2022-11-28T16:30:43.876Z,8.49
2022-11-28T16:33:35.731Z,8.51
2022-11-28T16:36:19.218Z,8.49
2022-11-28T16:38:48.271Z,8.47
2022-11-28T16:41:27.659Z,8.46
2022-11-28T16:43:59.794Z,8.45
2022-11-28T16:46:33.207Z,8.46
2022-11-28T16:49:01.174Z,8.48
2022-11-28T16:51:32.677Z,8.47
2022-11-28T16:54:20.827Z,8.45
2022-11-28T16:56:47.851Z,8.40
2022-11-28T16:59:19.909Z,8.41
2022-11-28T17:01:53.546Z,8.42
2022-11-28T17:04:24.778Z,8.41
2022-11-28T17:06:53.698Z,8.40
2022-11-28T17:09:21.377Z,8.38
2022-11-28T17:11:53.613Z,8.41
2022-11-28T17:14:20.551Z,8.40
2022-11-28T17:16:47.526Z,8.41
2022-11-28T17:19:14.691Z,8.40
2022-11-28T17:21:46.732Z,8.41
2022-11-28T17:24:20.384Z,8.43
2022-11-28T17:26:47.661Z,8.40
2022-11-28T17:29:15.446Z,8.41
2022-11-28T17:31:44.049Z,8.38
2022-11-28T17:34:23.938Z,8.39
2022-11-28T17:36:51.847Z,8.38
2022-11-28T17:39:19.896Z,8.40
2022-11-28T17:41:47.666Z,8.40
2022-11-28T17:44:23.041Z,8.39
2022-11-28T17:46:51.356Z,8.37
2022-11-28T17:49:19.273Z,8.35
2022-11-28T17:51:46.707Z,8.32
2022-11-28T17:54:16.703Z,8.33
2022-11-28T17:56:45.290Z,8.30
2022-11-28T17:59:14.014Z,8.29
2022-11-28T18:01:41.370Z,8.32
2022-11-28T18:04:08.634Z,8.28
2022-11-28T18:06:35.872Z,8.26
2022-11-28T18:09:11.449Z,8.26
2022-11-28T18:11:40.650Z,8.28
2022-11-28T18:14:09.065Z,8.25
2022-11-28T18:16:36.577Z,8.24
2022-11-28T18:19:04.571Z,8.24
2022-11-28T18:21:32.260Z,8.20
2022-11-28T18:23:59.079Z,8.20
2022-11-28T18:26:26.536Z,8.18
2022-11-28T18:28:54.526Z,8.16
2022-11-28T18:31:25.419Z,8.17
2022-11-28T18:33:57.516Z,8.16
2022-11-28T18:36:30.726Z,8.16
2022-11-28T18:38:59.891Z,8.15
2022-11-28T18:41:27.650Z,8.16
2022-11-28T18:43:59.548Z,8.19
2022-11-28T18:46:29.155Z,8.15
2022-11-28T18:48:56.618Z,8.20
2022-11-28T18:51:26.531Z,8.17
2022-11-28T18:53:55.133Z,8.16
2022-11-28T18:56:24.196Z,8.13
2022-11-28T18:58:53.393Z,8.10
2022-11-28T19:01:25.140Z,8.06
2022-11-28T19:03:55.541Z,8.04
2022-11-28T19:06:23.921Z,8.05
2022-11-28T19:08:57.731Z,8.06
2022-11-28T19:11:25.489Z,8.08
2022-11-28T19:13:53.576Z,8.10
2022-11-28T19:16:30.891Z,8.08
2022-11-28T19:18:59.181Z,8.02
2022-11-28T19:21:28.466Z,7.98
2022-11-28T19:23:57.041Z,7.98
2022-11-28T19:26:26.526Z,7.96
2022-11-28T19:28:53.564Z,7.97
2022-11-28T19:31:23.783Z,7.92
2022-11-28T19:34:12.766Z,7.89
2022-11-28T19:36:42.388Z,7.91
2022-11-28T19:39:23.319Z,7.93
2022-11-28T19:41:54.509Z,7.93
2022-11-28T19:44:24.715Z,7.92
2022-11-28T19:46:53.488Z,7.91
2022-11-28T19:49:23.477Z,7.92
2022-11-28T19:51:51.227Z,7.89
2022-11-28T19:54:21.797Z,7.89
2022-11-28T19:56:49.789Z,7.91
2022-11-28T19:59:18.163Z,7.89
2022-11-28T20:01:48.181Z,7.90
2022-11-28T20:04:15.935Z,7.85
2022-11-28T20:06:43.632Z,7.80
2022-11-28T20:09:12.912Z,7.76
2022-11-28T20:11:43.162Z,7.78
2022-11-28T20:14:13.999Z,7.80
2022-11-28T20:16:41.443Z,7.81
2022-11-28T20:19:10.632Z,7.76
2022-11-28T20:21:37.768Z,7.72
2022-11-28T20:24:07.607Z,7.73
2022-11-28T20:26:41.221Z,7.74
2022-11-28T20:29:12.611Z,7.76
2022-11-28T20:31:46.738Z,7.71
2022-11-28T20:34:17.242Z,7.69
2022-11-28T20:36:45.076Z,7.70
2022-11-28T20:39:13.243Z,7.68
2022-11-28T20:41:40.127Z,7.68
2022-11-28T20:44:07.248Z,7.65
2022-11-28T20:46:35.940Z,7.62
2022-11-28T20:49:07.117Z,7.62
2022-11-28T20:51:35.790Z,7.58
2022-11-28T20:54:04.915Z,7.59
2022-11-28T20:56:51.596Z,7.58
2022-11-28T20:59:22.737Z,7.55
2022-11-28T21:01:49.667Z,7.54
2022-11-28T21:04:17.845Z,7.55
2022-11-28T21:06:47.266Z,7.54
2022-11-28T21:09:15.490Z,7.52
2022-11-28T21:11:56.768Z,7.51
2022-11-28T21:14:26.706Z,7.55
2022-11-28T21:16:53.621Z,7.55
2022-11-28T21:19:20.975Z,7.53
2022-11-28T21:21:48.012Z,7.54
2022-11-28T21:24:14.877Z,7.54
2022-11-28T21:26:46.662Z,7.53
2022-11-28T21:29:17.145Z,7.55
2022-11-28T21:31:45.207Z,7.53
2022-11-28T21:34:17.017Z,7.54
2022-11-28T21:36:44.327Z,7.49
2022-11-28T21:39:18.892Z,7.46
2022-11-28T21:41:46.377Z,7.45
2022-11-28T21:44:13.187Z,7.41
2022-11-28T21:46:40.166Z,7.38
2022-11-28T21:49:07.569Z,7.38
2022-11-28T21:51:38.892Z,7.40
2022-11-28T21:54:06.384Z,7.40
2022-11-28T21:56:33.691Z,7.41
2022-11-28T21:59:00.784Z,7.37
2022-11-28T22:01:28.722Z,7.37
2022-11-28T22:04:02.069Z,7.33
2022-11-28T22:06:30.238Z,7.33
2022-11-28T22:08:58.078Z,7.30
2022-11-28T22:11:25.425Z,7.26
2022-11-28T22:13:52.870Z,7.23
2022-11-28T22:16:25.735Z,7.22
2022-11-28T22:18:55.412Z,7.22
2022-11-28T22:24:10.769Z,7.21
2022-11-28T22:26:38.096Z,7.25
2022-11-28T22:29:05.540Z,7.24
2022-11-28T22:31:34.031Z,7.22
2022-11-28T22:34:00.842Z,7.18
2022-11-28T22:36:28.315Z,7.17
2022-11-28T22:38:57.570Z,7.14
2022-11-28T22:41:28.766Z,7.14
2022-11-28T22:44:00.886Z,7.10
2022-11-28T22:46:29.709Z,7.08
2022-11-28T22:48:59.823Z,7.08
2022-11-28T22:51:28.047Z,7.09
2022-11-28T22:53:56.545Z,7.07
2022-11-28T22:56:26.079Z,7.04
2022-11-28T22:58:52.942Z,7.05
2022-11-28T23:01:26.889Z,7.06
2022-11-28T23:03:55.048Z,7.06
2022-11-28T23:06:28.401Z,7.02
2022-11-28T23:08:56.989Z,7.02
2022-11-28T23:11:29.474Z,7.03
2022-11-28T23:13:56.823Z,6.99
2022-11-28T23:16:29.638Z,6.98
2022-11-28T23:18:59.577Z,6.97
2022-11-28T23:21:29.990Z,6.98
2022-11-28T23:23:56.987Z,6.95
2022-11-28T23:26:28.494Z,6.90
2022-11-28T23:28:55.896Z,6.89
2022-11-28T23:31:29.325Z,6.87
2022-11-28T23:33:57.204Z,6.87
2022-11-28T23:36:26.483Z,6.83
2022-11-28T23:38:58.967Z,6.80
2022-11-28T23:41:27.522Z,6.77
2022-11-28T23:43:54.606Z,6.74
2022-11-28T23:46:22.513Z,6.72
2022-11-28T23:48:50.122Z,6.70
2022-11-28T23:51:20.601Z,6.63
2022-11-28T23:53:48.002Z,6.61
2022-11-28T23:56:18.402Z,6.61
2022-11-28T23:58:46.030Z,6.60
